Terminal Aerodrome Forecast
Issued by NWS

Home | Current Version | Previous Version | Text Only | Print | Product List | Glossary Off
Versions: 1 2 3 4 5 6 7 8 9 10 11 12 13 14 15 16 17

000
FTUS43 KMPX 031253 AAA
TAFRWF
TAF AMD
KRWF 031253Z 0313/0412 18008KT 1 1/2SM -SN BR OVC015
      TEMPO 0313/0315 1/2SM SN FZFG VV008
     FM031500 29012G20KT 1 1/2SM -SN BR OVC010
     FM031700 32024G34KT 2SM BLSN FEW020 BKN090
     FM040100 31017G25KT P6SM SKC
     FM040700 30012KT P6SM SKC=

USA.gov is the U.S. government's official web portal to all federal, state and local government web resources and services.